createdAt,value
2023-04-23T00:09:59.537Z,16.5
2023-04-23T00:25:09.063Z,16.4
2023-04-23T00:40:18.549Z,16.4
2023-04-23T00:55:28.129Z,16.4
2023-04-23T01:10:37.122Z,15.4
2023-04-23T01:25:45.685Z,14.6
2023-04-23T01:40:55.274Z,14.2
2023-04-23T01:56:06.515Z,14.1
2023-04-23T02:11:16.159Z,13.9
2023-04-23T02:26:26.230Z,13.9
2023-04-23T02:41:36.041Z,13.9
2023-04-23T02:56:46.304Z,13.9
2023-04-23T03:11:55.926Z,13.8
2023-04-23T03:27:07.978Z,13.9
2023-04-23T03:42:17.838Z,13.7
2023-04-23T03:57:41.968Z,13.5
2023-04-23T04:12:51.689Z,13.3
2023-04-23T04:28:01.367Z,13
2023-04-23T04:43:11.554Z,12.9
2023-04-23T04:58:21.185Z,12.5
2023-04-23T05:13:30.545Z,12.3
2023-04-23T05:28:40.284Z,12.4
2023-04-23T05:43:49.768Z,12.1
2023-04-23T05:58:59.201Z,12
2023-04-23T06:14:08.028Z,11.9
2023-04-23T06:29:17.128Z,12
2023-04-23T06:44:26.808Z,12.1
2023-04-23T06:59:37.290Z,12.3
2023-04-23T07:14:47.725Z,12.6
2023-04-23T07:29:57.615Z,12.7
2023-04-23T07:45:08.422Z,13
2023-04-23T08:00:18.515Z,13.1
2023-04-23T08:15:28.220Z,13.3
2023-04-23T08:30:37.815Z,13.6
2023-04-23T08:45:47.417Z,13.9
2023-04-23T09:00:58.563Z,14.1
2023-04-23T09:16:08.628Z,14.4
2023-04-23T09:31:18.942Z,14.9
2023-04-23T09:46:32.142Z,15.3
2023-04-23T10:01:43.072Z,15.6
2023-04-23T10:16:53.856Z,15.9
2023-04-23T10:32:03.819Z,16.4
2023-04-23T10:47:13.398Z,16.7
2023-04-23T11:02:23.718Z,17.4
2023-04-23T11:17:34.817Z,18
2023-04-23T11:32:45.151Z,17.9
2023-04-23T11:47:55.794Z,17.8
2023-04-23T12:03:06.482Z,18
2023-04-23T12:18:17.947Z,18.7
2023-04-23T12:33:27.923Z,18.7
2023-04-23T12:48:38.701Z,19.7
2023-04-23T13:03:48.807Z,19.4
2023-04-23T13:18:59.340Z,18.9
2023-04-23T13:34:08.783Z,18.2
2023-04-23T13:49:17.158Z,16.5
2023-04-23T14:04:26.601Z,16.3
2023-04-23T14:19:37.468Z,16.3
2023-04-23T14:34:47.087Z,16.5
2023-04-23T14:49:56.574Z,16.4
2023-04-23T15:05:07.964Z,17
2023-04-23T15:20:19.404Z,19.8
2023-04-23T15:35:31.770Z,23.5
2023-04-23T15:50:43.874Z,25.6
2023-04-23T16:05:54.277Z,26
2023-04-23T16:21:02.080Z,23
2023-04-23T16:36:11.134Z,21.1
2023-04-23T16:51:19.165Z,19.9
2023-04-23T17:06:28.766Z,19
2023-04-23T17:21:37.681Z,18.5
2023-04-23T17:36:46.278Z,18
2023-04-23T17:51:55.565Z,17.6
2023-04-23T18:07:04.490Z,17.4
2023-04-23T18:22:13.964Z,17.2
2023-04-23T18:37:23.796Z,17
2023-04-23T18:52:33.220Z,16.7
2023-04-23T19:07:42.576Z,16.4
2023-04-23T19:22:52.306Z,16.3
2023-04-23T19:38:02.134Z,16.2
2023-04-23T19:53:11.158Z,16.1
2023-04-23T20:08:20.729Z,15.9
2023-04-23T20:23:30.114Z,15.9
2023-04-23T20:38:40.379Z,15.8
2023-04-23T20:53:49.804Z,15.7
2023-04-23T21:08:59.409Z,15.5
2023-04-23T21:24:09.634Z,15.1
2023-04-23T21:39:19.033Z,14.7
2023-04-23T21:54:28.052Z,14.6
2023-04-23T22:09:38.466Z,14.5
2023-04-23T22:24:48.206Z,14.5
2023-04-23T22:39:57.418Z,14.4
2023-04-23T22:55:06.784Z,14.1
2023-04-23T23:10:16.329Z,13.9
2023-04-23T23:25:25.315Z,13.8
2023-04-23T23:40:34.749Z,13.6
2023-04-23T23:55:44.391Z,13.7
